4XCGI LLHZ-LLHZ

Flight info

Callsign 4XCGI
Flight time 0h 15m
Altitude 800
Route CVFR
Aircraft C172/L-V/N

Departure

Time 2026-04-27 16:20
Airport Herzliya Airport (LLHZ)

Arrival

Time 2026-04-27 16:36
Airport Herzliya Airport (LLHZ)
Time Latitude Longitude Altitude Speed Heading
2026-04-27 16:12 32.18030 34.83282 107 ft 0 kts 20°
2026-04-27 16:13 32.18029 34.83282 107 ft 0 kts 20°
2026-04-27 16:14 32.18030 34.83282 107 ft 0 kts 20°
2026-04-27 16:14 32.18045 34.83291 108 ft 0 kts 45°
2026-04-27 16:15 32.18009 34.83408 110 ft 14 kts 109°
2026-04-27 16:15 32.17931 34.83672 119 ft 19 kts 108°
2026-04-27 16:16 32.17880 34.83851 127 ft 0 kts 87°
2026-04-27 16:17 32.17880 34.83852 127 ft 2 kts 83°
2026-04-27 16:18 32.17925 34.83814 127 ft 14 kts 290°
2026-04-27 16:18 32.18174 34.82961 281 ft 73 kts 295°
2026-04-27 16:19 32.18558 34.82646 413 ft 76 kts
2026-04-27 16:19 32.19011 34.82846 507 ft 81 kts 21°
2026-04-27 16:20 32.19224 34.84893 555 ft 86 kts 46°
2026-04-27 16:20 32.19647 34.85480 637 ft 99 kts 40°
2026-04-27 16:20 32.20526 34.86685 809 ft 102 kts 43°
2026-04-27 16:21 32.21011 34.87290 820 ft 99 kts 39°
2026-04-27 16:21 32.22859 34.88156 945 ft 98 kts 333°
2026-04-27 16:22 32.23407 34.87693 1077 ft 97 kts 322°
2026-04-27 16:22 32.24339 34.86534 1411 ft 98 kts 308°
2026-04-27 16:22 32.24775 34.85906 1466 ft 96 kts 311°
2026-04-27 16:23 32.25191 34.85329 1466 ft 91 kts 311°
2026-04-27 16:23 32.26145 34.85272 1546 ft 101 kts 71°
2026-04-27 16:23 32.26242 34.85956 1599 ft 69 kts 73°
2026-04-27 16:24 32.26290 34.86501 1567 ft 92 kts 69°
2026-04-27 16:24 32.25861 34.86885 1730 ft 106 kts 304°
2026-04-27 16:25 32.26453 34.86018 2052 ft 68 kts 298°
2026-04-27 16:25 32.26835 34.86473 2077 ft 110 kts 133°
2026-04-27 16:26 32.26299 34.86769 1930 ft 53 kts 75°
2026-04-27 16:26 32.27138 34.87745 1656 ft 117 kts 318°
2026-04-27 16:27 32.26982 34.86184 1836 ft 96 kts 226°
2026-04-27 16:27 32.25578 34.85115 1589 ft 112 kts 167°
2026-04-27 16:28 32.25834 34.86381 1714 ft 95 kts 24°
2026-04-27 16:28 32.26662 34.86936 1585 ft 87 kts 21°
2026-04-27 16:29 32.26463 34.85664 1910 ft 126 kts 202°
2026-04-27 16:30 32.24814 34.85268 1985 ft 116 kts 175°
2026-04-27 16:30 32.23564 34.86525 1768 ft 124 kts 130°
2026-04-27 16:31 32.21757 34.88323 1108 ft 115 kts 183°
2026-04-27 16:31 32.20635 34.87363 1074 ft 98 kts 238°
2026-04-27 16:32 32.19783 34.86035 1121 ft 110 kts 228°
2026-04-27 16:32 32.19102 34.85597 1103 ft 116 kts 198°
2026-04-27 16:33 32.17841 34.85321 1128 ft 101 kts 198°
2026-04-27 16:33 32.17570 34.84750 1140 ft 90 kts 287°
2026-04-27 16:33 32.17792 34.84045 1150 ft 92 kts 293°
2026-04-27 16:33 32.18048 34.83360 1136 ft 91 kts 297°
2026-04-27 16:34 32.18425 34.82856 1031 ft 81 kts 342°
2026-04-27 16:34 32.18989 34.82954 886 ft 88 kts 21°
2026-04-27 16:34 32.19243 34.83599 833 ft 100 kts 103°
2026-04-27 16:34 32.18947 34.84321 825 ft 92 kts 116°
2026-04-27 16:35 32.18644 34.84945 799 ft 89 kts 114°
2026-04-27 16:35 32.18238 34.85375 732 ft 82 kts 190°
2026-04-27 16:35 32.17629 34.84751 470 ft 59 kts 303°
2026-04-27 16:36 32.17775 34.84290 337 ft 60 kts 292°
2026-04-27 16:36 32.17909 34.83856 153 ft 52 kts 294°
2026-04-27 16:36 32.18008 34.83540 111 ft 31 kts 292°
2026-04-27 16:36 32.18057 34.83362 105 ft 10 kts 290°
2026-04-27 16:37 32.18043 34.83329 106 ft 0 kts 206°
2026-04-27 16:37 32.18033 34.83299 106 ft 10 kts 265°
2026-04-27 16:37 32.18048 34.83220 104 ft 0 kts 24°